Time;durP1;ratioP1;P1;durP2;ratioP2;P2;SDS_P1;SDS_P2;PMS_P1;PMS_P2;Temp;Humidity;BMP_temperature;BMP_pressure;BME280_temperature;BME280_humidity;BME280_pressure;Samples;Min_cycle;Max_cycle;Signal;HPM_P1;HPM_P2
2022/12/30 00:01:06;;;;;;;42.67;23.15;;;;;;;4.00;59.40;100031.13;4316125;33;20124;-88
2022/12/30 00:03:32;;;;;;;44.88;24.05;;;;;;;3.91;59.40;100039.72;4293718;33;20130;-88
2022/12/30 00:05:57;;;;;;;40.08;21.83;;;;;;;4.15;59.41;100032.81;4289228;33;20125;-88
2022/12/30 00:11:08;;;;;;;46.88;21.40;;;;;;;4.36;59.42;100022.47;4335275;33;20116;-89
2022/12/30 00:33:08;;;;;;;46.15;23.10;;;;;;;4.73;59.44;100027.50;4324913;33;20159;-88
2022/12/30 00:35:37;;;;;;;52.78;23.48;;;;;;;4.58;59.43;100015.53;4311805;33;20596;-88
2022/12/30 00:38:03;;;;;;;46.00;23.35;;;;;;;4.69;59.44;100016.34;4305018;33;20087;-88
2022/12/30 00:40:28;;;;;;;45.22;21.80;;;;;;;4.60;59.44;100019.84;4334639;33;20152;-87
2022/12/30 00:43:09;;;;;;;42.03;21.85;;;;;;;4.69;59.44;100021.50;4347750;33;20144;-88
2022/12/30 00:45:39;;;;;;;42.40;20.80;;;;;;;4.56;59.43;100025.88;4318080;33;20116;-88
2022/12/30 00:56:17;;;;;;;43.95;22.15;;;;;;;4.53;59.43;100027.59;4324747;33;20528;-87
2022/12/30 00:58:42;;;;;;;41.22;20.92;;;;;;;4.58;59.43;100029.28;4320094;33;20099;-89
2022/12/30 01:01:08;;;;;;;40.72;21.83;;;;;;;4.39;59.42;100037.94;4291514;33;20395;-88
2022/12/30 01:03:33;;;;;;;48.70;22.02;;;;;;;4.31;59.41;100027.66;4334908;33;20181;-89
2022/12/30 01:06:05;;;;;;;46.25;21.52;;;;;;;4.43;59.43;100025.88;4322381;33;20107;-89
2022/12/30 01:08:31;;;;;;;45.80;22.17;;;;;;;4.55;59.43;100018.12;4323749;33;20457;-89
2022/12/30 01:10:57;;;;;;;43.10;21.67;;;;;;;4.62;59.43;100020.69;4328732;33;20107;-89
2022/12/30 01:13:22;;;;;;;46.10;21.98;;;;;;;4.76;59.44;100027.53;4321490;33;20166;-89
2022/12/30 01:15:47;;;;;;;42.20;21.45;;;;;;;4.72;59.44;100021.50;4322475;33;20127;-88
2022/12/30 01:18:13;;;;;;;42.88;22.30;;;;;;;4.74;59.44;100019.78;4318879;33;20127;-90
2022/12/30 01:20:38;;;;;;;44.20;21.48;;;;;;;4.81;59.45;100003.41;4314202;33;20142;-89
2022/12/30 01:23:04;;;;;;;39.42;20.27;;;;;;;4.83;59.44;100001.69;4321110;33;20454;-89
2022/12/30 01:25:29;;;;;;;49.42;22.37;;;;;;;4.99;59.46;100006.78;4301249;33;20108;-89
2022/12/30 01:27:55;;;;;;;41.15;19.42;;;;;;;4.92;59.45;99993.03;4321383;33;20088;-88
2022/12/30 01:30:20;;;;;;;46.20;21.12;;;;;;;4.83;59.45;99993.94;4314053;33;20433;-89
2022/12/30 01:32:45;;;;;;;40.00;20.88;;;;;;;4.78;59.44;99997.41;4297563;33;20163;-88
2022/12/30 01:35:11;;;;;;;58.30;25.60;;;;;;;4.91;59.45;99984.44;4326282;33;20108;-88
2022/12/30 01:37:37;;;;;;;92.50;36.97;;;;;;;5.03;59.46;99993.00;4322528;33;20080;-88
2022/12/30 01:40:03;;;;;;;69.50;29.80;;;;;;;4.89;59.45;99991.31;4322653;33;20174;-89
2022/12/30 01:42:29;;;;;;;77.22;33.63;;;;;;;5.01;59.47;99987.84;4322571;33;20229;-89
2022/12/30 01:44:58;;;;;;;43.70;20.90;;;;;;;5.02;59.46;99983.53;4295868;33;20090;-89
2022/12/30 01:47:37;;;;;;;45.92;21.45;;;;;;;5.28;59.47;99985.94;4322603;33;20092;-89
2022/12/30 01:50:41;;;;;;;41.58;21.95;;;;;;;5.10;59.47;99981.75;4314546;33;20714;-89
2022/12/30 01:53:12;;;;;;;49.05;22.00;;;;;;;5.12;59.46;99983.47;4319556;33;20108;-92
2022/12/30 01:55:41;;;;;;;44.58;21.85;;;;;;;4.99;59.45;99987.00;4310941;33;20106;-91
2022/12/30 01:58:13;;;;;;;45.67;20.67;;;;;;;4.96;59.46;99989.56;4314335;33;20096;-91
2022/12/30 02:00:39;;;;;;;44.72;21.90;;;;;;;5.02;59.46;99975.81;4298564;33;20733;-91
2022/12/30 02:03:04;;;;;;;40.88;21.67;;;;;;;4.99;59.46;99975.81;4327729;33;20140;-91
2022/12/30 02:05:30;;;;;;;40.75;22.33;;;;;;;4.98;59.45;99969.81;4312599;33;20366;-91
2022/12/30 02:08:09;;;;;;;43.87;21.50;;;;;;;5.09;59.46;99959.41;4315170;33;20115;-90
2022/12/30 02:10:34;;;;;;;43.75;22.20;;;;;;;5.20;59.47;99958.47;4316775;33;20118;-90
2022/12/30 02:13:00;;;;;;;49.88;24.45;;;;;;;5.21;59.46;99957.63;4305335;33;20131;-90
2022/12/30 02:15:26;;;;;;;51.60;25.02;;;;;;;5.09;59.46;99959.41;4289416;33;20095;-90
2022/12/30 02:17:56;;;;;;;51.28;25.20;;;;;;;5.06;59.46;99967.16;4333819;33;20442;-90
2022/12/30 02:20:44;;;;;;;51.67;24.60;;;;;;;5.15;59.46;99972.25;4315906;33;20064;-90
2022/12/30 02:23:26;;;;;;;53.58;23.85;;;;;;;4.97;59.45;99968.09;4316984;33;20104;-90
2022/12/30 02:26:07;;;;;;;55.17;25.23;;;;;;;4.99;59.45;99960.34;4322486;32;20067;-90
2022/12/30 02:29:10;;;;;;;43.95;21.50;;;;;;;5.12;59.46;99949.06;4337423;33;20104;-91
2022/12/30 02:31:57;;;;;;;49.58;23.20;;;;;;;5.13;59.46;99959.38;4332700;33;20088;-91
2022/12/30 02:34:25;;;;;;;40.40;20.70;;;;;;;5.15;59.46;99960.22;4336803;33;20076;-92
2022/12/30 02:37:09;;;;;;;47.83;21.48;;;;;;;5.28;59.47;99954.97;4333568;33;20103;-90
2022/12/30 02:39:37;;;;;;;42.75;21.85;;;;;;;5.25;59.47;99961.03;4308138;33;20477;-91
2022/12/30 02:45:01;;;;;;;52.08;22.95;;;;;;;5.28;59.47;99954.97;4309788;33;20118;-91
2022/12/30 02:47:42;;;;;;;46.78;21.37;;;;;;;5.32;59.48;99954.94;4310115;33;20120;-89
2022/12/30 02:53:14;;;;;;;47.08;21.90;;;;;;;5.43;59.48;99958.28;4299371;33;20127;-91
2022/12/30 02:55:40;;;;;;;55.72;21.33;;;;;;;5.58;59.49;99957.31;4334174;33;20167;-92
2022/12/30 02:58:05;;;;;;;47.65;22.60;;;;;;;5.78;59.50;99952.84;4313575;33;20108;-92
2022/12/30 03:06:23;;;;;;;51.50;22.40;;;;;;;5.53;59.49;99953.91;4334645;33;20126;-91
2022/12/30 03:08:56;;;;;;;53.75;22.23;;;;;;;5.67;59.49;99954.63;4334999;33;20076;-91
2022/12/30 03:11:21;;;;;;;55.35;23.58;;;;;;;5.52;59.48;99959.94;4324413;33;20092;-91
2022/12/30 03:14:01;;;;;;;49.38;21.87;;;;;;;5.61;59.49;99959.88;4297474;33;20099;-92
2022/12/30 03:16:33;;;;;;;56.27;22.47;;;;;;;5.56;59.49;99951.31;4321426;33;20155;-89
2022/12/30 03:19:01;;;;;;;52.65;21.80;;;;;;;5.72;59.50;99957.22;4321394;33;20080;-88
2022/12/30 03:21:27;;;;;;;49.60;23.38;;;;;;;5.66;59.48;99941.75;4329957;33;20095;-89
2022/12/30 03:29:25;;;;;;;49.40;22.45;;;;;;;5.71;59.50;99945.16;4313596;33;20146;-88
2022/12/30 03:31:50;;;;;;;48.33;21.67;;;;;;;5.60;59.48;99954.72;4321305;33;20083;-89
2022/12/30 03:34:16;;;;;;;54.63;22.92;;;;;;;5.74;59.49;99940.81;4306666;33;20178;-90
2022/12/30 03:36:43;;;;;;;69.95;24.75;;;;;;;5.83;59.50;99939.87;4316577;33;20099;-90
2022/12/30 03:39:17;;;;;;;60.45;24.35;;;;;;;5.84;59.51;99944.16;4319163;33;20100;-90
2022/12/30 03:41:44;;;;;;;59.05;23.75;;;;;;;5.89;59.50;99944.97;4309081;33;20088;-90
2022/12/30 03:44:10;;;;;;;61.65;23.33;;;;;;;5.94;59.51;99944.97;4318857;33;20141;-91
2022/12/30 03:46:35;;;;;;;63.80;25.37;;;;;;;6.03;59.51;99931.94;4308893;33;20124;-91
2022/12/30 03:49:01;;;;;;;60.88;24.75;;;;;;;6.02;59.52;99933.69;4321588;33;20087;-90
2022/12/30 03:51:26;;;;;;;61.72;25.95;;;;;;;5.94;59.51;99940.66;4323411;33;20437;-92
2022/12/30 03:53:51;;;;;;;69.22;25.05;;;;;;;5.99;59.51;99941.47;4311219;33;20409;-87
2022/12/30 03:56:17;;;;;;;61.37;24.77;;;;;;;5.90;59.51;99940.69;4299329;33;20123;-89
2022/12/30 03:58:43;;;;;;;61.33;24.48;;;;;;;5.82;59.50;99933.84;4323402;33;20110;-89
2022/12/30 04:01:08;;;;;;;74.32;24.87;;;;;;;5.79;59.50;99941.63;4320943;33;20096;-90
2022/12/30 04:03:33;;;;;;;71.85;25.17;;;;;;;5.97;59.51;99926.84;4334438;33;20139;-88
2022/12/30 04:05:59;;;;;;;68.53;26.10;;;;;;;5.83;59.50;99934.69;4297581;33;20111;-88
2022/12/30 04:08:25;;;;;;;75.20;26.25;;;;;;;5.81;59.50;99939.03;4319639;33;20518;-87
2022/12/30 04:10:50;;;;;;;74.18;25.37;;;;;;;5.82;59.50;99933.84;4307863;33;20164;-88
2022/12/30 04:13:16;;;;;;;72.12;25.30;;;;;;;5.71;59.50;99942.59;4319568;33;20348;-86
2022/12/30 04:15:41;;;;;;;71.20;24.65;;;;;;;5.84;59.51;99946.75;4316095;33;20218;-87
2022/12/30 04:18:07;;;;;;;68.28;25.85;;;;;;;5.94;59.51;99953.59;4320039;33;20134;-87
2022/12/30 04:20:32;;;;;;;81.47;26.92;;;;;;;5.91;59.51;99951.00;4328700;33;20091;-90
2022/12/30 04:22:58;;;;;;;65.22;25.35;;;;;;;5.99;59.52;99953.53;4320609;33;20167;-89
2022/12/30 04:25:25;;;;;;;78.15;27.55;;;;;;;5.90;59.50;99956.19;4320500;33;20128;-89
2022/12/30 04:27:50;;;;;;;72.82;25.42;;;;;;;5.91;59.51;99951.00;4320453;33;20489;-87
2022/12/30 04:30:16;;;;;;;72.93;26.27;;;;;;;5.99;59.52;99950.94;4308716;33;20117;-89
2022/12/30 04:32:41;;;;;;;76.80;25.70;;;;;;;5.96;59.51;99938.06;4307403;33;20088;-88
2022/12/30 04:35:07;;;;;;;66.70;25.08;;;;;;;6.01;59.51;99944.03;4318757;33;20155;-90
2022/12/30 04:37:37;;;;;;;74.05;25.15;;;;;;;6.01;59.51;99947.47;4318140;33;20112;-92
2022/12/30 04:41:00;;;;;;;;;;;;;;;;;;;;;
2022/12/30 04:43:44;;;;;;;66.50;25.35;;;;;;;5.93;59.51;99953.59;4334955;33;19974;-93
2022/12/30 04:46:38;;;;;;;68.75;26.45;;;;;;;6.01;59.51;99952.63;4313828;33;20462;-93
2022/12/30 04:49:30;;;;;;;71.53;25.77;;;;;;;5.94;59.51;99956.16;4301519;33;20462;-93
2022/12/30 04:55:04;;;;;;;65.65;24.87;;;;;;;5.97;59.51;99958.72;4329915;33;20147;-89
2022/12/30 04:57:29;;;;;;;76.68;25.80;;;;;;;5.83;59.50;99957.94;4320331;33;20155;-89
2022/12/30 04:59:55;;;;;;;63.65;25.58;;;;;;;5.98;59.52;99965.59;4320386;33;20127;-89
2022/12/30 05:02:20;;;;;;;64.50;23.73;;;;;;;6.01;59.51;99957.81;4320403;33;20515;-90
2022/12/30 05:04:46;;;;;;;73.62;24.23;;;;;;;6.10;59.52;99951.69;4308705;33;20143;-89
2022/12/30 05:07:11;;;;;;;66.22;24.00;;;;;;;6.16;59.53;99954.22;4320227;33;20375;-89
2022/12/30 05:09:37;;;;;;;63.92;25.92;;;;;;;6.21;59.53;99949.84;4322829;33;20245;-89
2022/12/30 05:12:02;;;;;;;60.35;25.10;;;;;;;6.05;59.51;99951.72;4320935;33;20116;-90
2022/12/30 05:14:28;;;;;;;61.35;24.48;;;;;;;5.97;59.51;99958.72;4331162;33;20068;-89
2022/12/30 05:16:53;;;;;;;63.45;26.15;;;;;;;5.84;59.51;99952.75;4335160;33;20103;-90
2022/12/30 05:19:18;;;;;;;65.35;28.00;;;;;;;5.82;59.50;99964.84;4331256;33;20148;-90
2022/12/30 05:21:44;;;;;;;70.32;25.62;;;;;;;5.78;59.50;99958.00;4326636;33;20095;-90
2022/12/30 05:26:53;;;;;;;65.20;24.70;;;;;;;5.75;59.49;99983.84;4327925;33;20167;-88
2022/12/30 05:29:19;;;;;;;55.70;24.35;;;;;;;5.80;59.50;99982.09;4310594;33;20111;-89
2022/12/30 05:31:44;;;;;;;56.30;24.63;;;;;;;5.72;59.49;99994.22;4290427;33;20104;-87
2022/12/30 05:34:09;;;;;;;67.62;25.42;;;;;;;5.69;59.50;99988.22;4310067;33;20111;-88
2022/12/30 05:36:35;;;;;;;72.03;24.83;;;;;;;5.72;59.49;99978.72;4298503;33;20104;-89
2022/12/30 05:39:01;;;;;;;58.60;24.37;;;;;;;5.69;59.50;99968.44;4327875;33;20111;-89
2022/12/30 05:41:26;;;;;;;56.78;24.15;;;;;;;5.61;59.49;99970.19;4303857;33;20125;-87
2022/12/30 05:43:52;;;;;;;63.60;26.50;;;;;;;5.52;59.48;99975.44;4308844;33;20140;-89
2022/12/30 05:46:17;;;;;;;58.00;25.90;;;;;;;5.68;59.49;99981.31;4320412;33;20138;-90
2022/12/30 05:48:44;;;;;;;71.60;25.48;;;;;;;5.69;59.50;99986.50;4323404;33;20148;-91
2022/12/30 05:51:09;;;;;;;62.85;24.25;;;;;;;5.64;59.49;99984.81;4320526;33;20092;-91
2022/12/30 05:53:35;;;;;;;58.70;24.17;;;;;;;5.71;59.50;99991.66;4322422;33;20117;-89
2022/12/30 05:56:00;;;;;;;67.55;26.40;;;;;;;5.71;59.50;99992.50;4287349;33;20183;-89
2022/12/30 05:58:26;;;;;;;65.93;24.95;;;;;;;5.63;59.50;99993.41;4309281;33;20111;-91
2022/12/30 06:00:52;;;;;;;58.13;24.25;;;;;;;5.59;59.49;99986.56;4328846;33;20091;-91
2022/12/30 06:03:20;;;;;;;58.05;25.48;;;;;;;5.63;59.49;99996.00;4294406;33;20357;-92
2022/12/30 06:05:45;;;;;;;54.30;24.60;;;;;;;5.54;59.49;99994.37;4299342;33;20503;-90
2022/12/30 06:08:11;;;;;;;61.13;24.17;;;;;;;5.67;59.49;100001.12;4322048;33;20148;-91
2022/12/30 06:10:36;;;;;;;72.87;25.95;;;;;;;5.82;59.50;99997.56;4289701;33;20121;-89
2022/12/30 06:13:02;;;;;;;74.53;26.55;;;;;;;6.09;59.52;99999.91;4308361;33;20104;-89
2022/12/30 06:15:27;;;;;;;80.47;28.02;;;;;;;5.86;59.51;100007.00;4319070;33;20104;-88
2022/12/30 06:17:53;;;;;;;70.53;26.12;;;;;;;5.98;59.50;100006.09;4319531;33;20151;-89
2022/12/30 06:20:18;;;;;;;71.32;24.65;;;;;;;5.97;59.51;100005.22;4287098;33;20096;-89
2022/12/30 06:22:43;;;;;;;69.87;27.65;;;;;;;5.98;59.50;100006.09;4307670;33;20198;-88
2022/12/30 06:25:09;;;;;;;70.43;27.50;;;;;;;5.91;59.51;100018.16;4288877;33;20092;-88
2022/12/30 06:27:34;;;;;;;65.53;27.75;;;;;;;5.67;59.49;100011.47;4307533;33;20175;-88
2022/12/30 06:30:06;;;;;;;76.75;28.73;;;;;;;5.59;59.49;100018.41;4290299;33;20150;-94
2022/12/30 06:33:05;;;;;;;72.93;26.90;;;;;;;5.60;59.48;100014.09;4322087;33;20739;-93
2022/12/30 06:35:30;;;;;;;76.37;28.08;;;;;;;6.01;59.51;100013.81;4314855;33;20261;-88
2022/12/30 06:37:56;;;;;;;81.18;27.25;;;;;;;6.06;59.52;100023.22;4321112;33;20489;-89
2022/12/30 06:40:21;;;;;;;74.03;28.95;;;;;;;6.22;59.53;100013.59;4312487;33;20834;-90
2022/12/30 06:42:47;;;;;;;77.55;29.98;;;;;;;6.22;59.53;100025.66;4322007;33;20377;-89
2022/12/30 06:45:12;;;;;;;78.87;28.67;;;;;;;5.92;59.51;100025.09;4313254;33;20130;-89
2022/12/30 06:47:37;;;;;;;88.28;28.87;;;;;;;5.94;59.51;100022.50;4293817;33;20096;-89
2022/12/30 06:50:03;;;;;;;68.35;26.73;;;;;;;6.03;59.51;100025.84;4307061;33;20147;-89
2022/12/30 06:52:29;;;;;;;79.22;29.00;;;;;;;6.05;59.51;100024.09;4317737;33;20123;-87
2022/12/30 06:54:54;;;;;;;82.97;27.92;;;;;;;6.03;59.51;100024.97;4315198;33;20151;-89
2022/12/30 06:57:20;;;;;;;93.85;30.08;;;;;;;6.25;59.53;100023.91;4297233;33;20423;-89
2022/12/30 06:59:45;;;;;;;84.35;29.15;;;;;;;6.06;59.52;100025.81;4321624;33;20477;-89
2022/12/30 07:02:10;;;;;;;89.75;29.20;;;;;;;6.09;59.52;100019.75;4308569;33;20485;-89
2022/12/30 07:04:36;;;;;;;92.60;30.12;;;;;;;6.30;59.53;100022.12;4291414;33;20155;-90
2022/12/30 07:07:01;;;;;;;82.90;29.85;;;;;;;6.13;59.51;100034.34;4323865;33;20099;-90
2022/12/30 07:09:27;;;;;;;91.35;30.23;;;;;;;6.13;59.51;100047.25;4326807;33;20118;-88
2022/12/30 07:11:52;;;;;;;84.75;29.42;;;;;;;6.25;59.52;100051.47;4307648;33;20114;-89
2022/12/30 07:14:18;;;;;;;101.47;30.10;;;;;;;6.26;59.52;100054.03;4313435;33;20137;-89
2022/12/30 07:16:43;;;;;;;98.12;28.80;;;;;;;6.21;59.53;100053.25;4333091;33;20166;-89
2022/12/30 07:19:09;;;;;;;93.22;29.60;;;;;;;6.19;59.52;100054.97;4312100;33;20132;-89
2022/12/30 07:21:34;;;;;;;89.03;29.73;;;;;;;6.16;59.52;100067.94;4294235;33;20150;-89
2022/12/30 07:24:00;;;;;;;91.75;31.67;;;;;;;6.18;59.52;100065.34;4300913;33;20495;-89
2022/12/30 07:26:25;;;;;;;103.00;30.35;;;;;;;6.25;59.52;100070.44;4322490;33;20446;-89
2022/12/30 07:28:54;;;;;;;93.00;30.90;;;;;;;6.24;59.52;100079.06;4322693;33;20096;-89
2022/12/30 07:31:20;;;;;;;87.45;30.98;;;;;;;6.26;59.52;100064.37;4322974;33;20453;-89
2022/12/30 07:33:45;;;;;;;87.90;30.30;;;;;;;6.12;59.51;100077.41;4321673;33;20172;-89
2022/12/30 07:36:10;;;;;;;90.90;30.90;;;;;;;6.13;59.53;100086.88;4291256;33;20137;-87
2022/12/30 07:38:36;;;;;;;89.95;30.62;;;;;;;6.30;59.53;100084.16;4325533;33;20182;-88
2022/12/30 07:41:01;;;;;;;88.43;30.12;;;;;;;6.27;59.54;100084.19;4316312;33;20153;-88
2022/12/30 07:43:27;;;;;;;85.57;29.67;;;;;;;6.30;59.53;100088.47;4295692;33;20112;-89
2022/12/30 07:45:52;;;;;;;96.78;30.60;;;;;;;6.54;59.55;100084.78;4323093;33;20122;-89
2022/12/30 07:48:18;;;;;;;94.80;29.27;;;;;;;6.55;59.54;100089.09;4321138;33;20155;-88
2022/12/30 07:50:43;;;;;;;94.80;29.37;;;;;;;6.43;59.54;100087.50;4322282;33;20430;-89
2022/12/30 07:53:08;;;;;;;88.25;29.55;;;;;;;6.26;59.52;100095.41;4323090;33;20550;-89
2022/12/30 07:55:37;;;;;;;96.80;29.87;;;;;;;6.59;59.55;100088.19;4319834;33;20468;-89
2022/12/30 07:58:03;;;;;;;89.70;29.73;;;;;;;6.31;59.53;100098.81;4307733;33;20111;-89
2022/12/30 08:00:28;;;;;;;87.43;29.10;;;;;;;6.44;59.54;100100.41;4310512;33;20108;-90
2022/12/30 08:02:54;;;;;;;78.15;27.48;;;;;;;6.37;59.53;100106.50;4314934;33;20157;-90
2022/12/30 08:05:19;;;;;;;82.90;27.95;;;;;;;6.51;59.54;100106.38;4317370;33;20461;-89
2022/12/30 08:07:45;;;;;;;78.80;28.58;;;;;;;6.67;59.55;100112.25;4310794;33;20158;-89
2022/12/30 08:10:10;;;;;;;87.62;29.10;;;;;;;6.69;59.55;100106.19;4309276;33;20103;-89
2022/12/30 08:12:36;;;;;;;82.55;29.90;;;;;;;6.72;59.55;100105.31;4292431;33;20172;-89
2022/12/30 08:15:01;;;;;;;80.75;28.90;;;;;;;6.57;59.54;100111.47;4333619;33;20103;-89
2022/12/30 08:17:28;;;;;;;81.95;28.33;;;;;;;6.75;59.55;100111.28;4313990;33;20437;-88
2022/12/30 08:19:53;;;;;;;69.07;27.35;;;;;;;6.93;59.56;100111.97;4317898;33;20108;-89
2022/12/30 08:22:19;;;;;;;124.72;48.95;;;;;;;6.85;59.56;100111.19;4314784;33;20399;-89
2022/12/30 08:24:44;;;;;;;97.85;45.95;;;;;;;6.86;59.56;100112.91;4330546;33;20485;-89
2022/12/30 08:27:09;;;;;;;78.30;28.73;;;;;;;6.75;59.55;100115.63;4293457;33;20442;-89
2022/12/30 08:29:35;;;;;;;78.65;29.37;;;;;;;6.66;59.55;100113.12;4310379;33;20422;-89
2022/12/30 08:32:00;;;;;;;84.10;32.63;;;;;;;6.74;59.55;100114.75;4312804;33;20163;-87
2022/12/30 08:34:26;;;;;;;92.80;40.40;;;;;;;6.74;59.56;100113.91;4318260;33;20468;-89
2022/12/30 08:36:51;;;;;;;79.40;31.40;;;;;;;6.89;59.56;100113.75;4321119;33;20087;-86
2022/12/30 08:39:17;;;;;;;80.97;30.20;;;;;;;7.04;59.57;100123.03;4334825;33;20151;-88
2022/12/30 08:41:43;;;;;;;75.95;27.13;;;;;;;7.04;59.57;100126.50;4311935;33;20093;-88
2022/12/30 08:44:09;;;;;;;63.97;25.23;;;;;;;7.19;59.58;100119.44;4309933;33;20072;-89
2022/12/30 08:46:35;;;;;;;80.22;26.08;;;;;;;7.21;59.58;100122.84;4322218;33;20134;-88
2022/12/30 08:49:00;;;;;;;70.37;26.95;;;;;;;7.33;59.59;100125.28;4322046;33;20679;-88
2022/12/30 08:51:26;;;;;;;64.65;24.20;;;;;;;7.22;59.58;100129.75;4321760;33;20494;-87
2022/12/30 08:53:52;;;;;;;68.50;24.40;;;;;;;7.24;59.58;100130.56;4319423;33;20063;-88
2022/12/30 08:56:19;;;;;;;74.05;27.20;;;;;;;7.37;59.59;100130.41;4290187;33;20154;-88
2022/12/30 08:58:45;;;;;;;71.12;28.25;;;;;;;7.39;59.58;100135.56;4309081;33;20112;-88
2022/12/30 09:01:18;;;;;;;62.70;23.92;;;;;;;7.49;59.60;100126.78;4322147;33;20411;-89
2022/12/30 09:03:44;;;;;;;65.40;25.65;;;;;;;7.48;59.60;100130.25;4321947;33;20130;-88
2022/12/30 09:06:10;;;;;;;65.95;25.33;;;;;;;7.44;59.59;100132.91;4312998;33;20111;-87
2022/12/30 09:08:36;;;;;;;74.30;28.02;;;;;;;7.36;59.59;100136.47;4301137;33;20092;-88
2022/12/30 09:11:06;;;;;;;67.25;24.85;;;;;;;7.39;59.58;100136.44;4321572;33;20104;-88
2022/12/30 09:13:31;;;;;;;71.93;26.85;;;;;;;7.30;59.58;100141.72;4316473;33;20104;-89
2022/12/30 09:15:57;;;;;;;73.45;24.90;;;;;;;7.46;59.59;100147.56;4290797;33;20126;-85
2022/12/30 09:18:22;;;;;;;77.40;29.00;;;;;;;7.54;59.59;100150.91;4316481;33;20135;-86
2022/12/30 09:20:48;;;;;;;73.50;26.62;;;;;;;7.66;59.60;100136.94;4289448;33;20151;-88
2022/12/30 09:23:16;;;;;;;70.95;26.87;;;;;;;7.72;59.61;100144.63;4321352;33;20115;-88
2022/12/30 09:25:42;;;;;;;65.15;27.13;;;;;;;7.76;59.62;100141.09;4308749;33;20110;-85
2022/12/30 09:28:10;;;;;;;60.28;24.75;;;;;;;7.81;59.61;100143.66;4285552;33;20124;-88
2022/12/30 09:30:36;;;;;;;69.68;25.88;;;;;;;7.80;59.61;100140.16;4312371;33;20132;-87
2022/12/30 09:33:01;;;;;;;58.47;23.80;;;;;;;7.85;59.62;100140.97;4300956;33;262334;-87
2022/12/30 09:35:27;;;;;;;65.35;24.25;;;;;;;7.90;59.61;100146.09;4297526;33;20118;-87
2022/12/30 09:37:55;;;;;;;63.30;25.95;;;;;;;7.90;59.61;100133.13;4287028;33;20140;-88
2022/12/30 09:40:29;;;;;;;65.57;26.05;;;;;;;7.87;59.62;100125.41;4309474;33;20167;-88
2022/12/30 09:45:42;;;;;;;64.32;24.83;;;;;;;7.82;59.61;100122.88;4318818;33;20887;-88
2022/12/30 09:48:12;;;;;;;66.12;24.20;;;;;;;7.73;59.61;100135.09;4301215;33;20104;-88
2022/12/30 09:50:44;;;;;;;75.68;26.75;;;;;;;7.86;59.62;100136.66;4310475;33;20461;-89
2022/12/30 09:53:17;;;;;;;66.50;26.17;;;;;;;7.72;59.61;100141.16;4321120;33;20266;-88
2022/12/30 09:55:59;;;;;;;60.42;22.40;;;;;;;7.85;59.61;100129.75;4327986;33;20084;-87
2022/12/30 09:58:28;;;;;;;63.25;24.52;;;;;;;7.81;59.61;100128.09;4308671;33;21082;-88
2022/12/30 10:00:54;;;;;;;69.60;25.70;;;;;;;7.76;59.62;100128.13;4289534;33;20133;-87
2022/12/30 10:03:25;;;;;;;72.22;27.42;;;;;;;7.78;59.61;100135.87;4309793;33;20115;-85
2022/12/30 10:06:23;;;;;;;77.05;27.23;;;;;;;7.81;59.61;100135.87;4321675;33;20153;-88
2022/12/30 10:09:26;;;;;;;65.85;24.05;;;;;;;7.74;59.61;100134.22;4307055;33;20158;-89
2022/12/30 10:12:19;;;;;;;67.70;22.10;;;;;;;7.87;59.62;100134.03;4328672;33;20072;-86
2022/12/30 10:14:56;;;;;;;65.35;23.50;;;;;;;7.85;59.62;100132.34;4299843;33;20448;-88
2022/12/30 10:17:46;;;;;;;68.30;24.48;;;;;;;8.00;59.63;100137.28;4321198;33;20083;-88
2022/12/30 10:20:42;;;;;;;59.35;22.70;;;;;;;8.07;59.63;100146.69;4323771;33;20084;-84
2022/12/30 10:23:50;;;;;;;61.78;24.63;;;;;;;8.03;59.62;100139.81;4319255;33;20096;-84
2022/12/30 10:26:24;;;;;;;65.47;25.37;;;;;;;8.13;59.63;100138.81;4317743;33;20095;-88
2022/12/30 10:28:57;;;;;;;63.60;23.73;;;;;;;8.26;59.64;100137.72;4317182;33;20104;-86
2022/12/30 10:31:24;;;;;;;60.50;25.60;;;;;;;8.32;59.64;100137.66;4313839;33;20117;-85
2022/12/30 10:33:51;;;;;;;63.13;24.67;;;;;;;8.47;59.65;100135.69;4315509;33;20112;-85
2022/12/30 10:36:41;;;;;;;64.82;25.55;;;;;;;8.57;59.65;100143.31;4312923;33;20171;-84
2022/12/30 10:39:22;;;;;;;65.35;25.83;;;;;;;8.61;59.66;100149.28;4297524;33;20099;-85
2022/12/30 10:42:12;;;;;;;70.72;25.02;;;;;;;8.70;59.66;100149.13;4308299;33;20497;-85
2022/12/30 10:44:40;;;;;;;;;;;;;;;8.64;59.66;100138.84;4328161;33;20115;-86
2022/12/30 10:47:30;;;;;;;60.67;23.65;;;;;;;8.56;59.66;100144.19;4321741;33;20059;-86
2022/12/30 10:50:14;;;;;;;64.18;25.48;;;;;;;8.56;59.65;100141.59;4317810;33;20162;-85
2022/12/30 10:52:40;;;;;;;65.43;25.30;;;;;;;8.52;59.66;100139.94;4309964;33;20091;-84
2022/12/30 10:55:25;;;;;;;67.85;24.48;;;;;;;8.37;59.65;100140.19;4310015;33;20149;-87
2022/12/30 10:58:02;;;;;;;61.25;24.70;;;;;;;8.37;59.65;100147.97;4312047;33;20177;-86
2022/12/30 11:00:39;;;;;;;59.22;24.42;;;;;;;8.51;59.66;100132.16;4322321;33;20117;-86
2022/12/30 11:03:20;;;;;;;76.62;29.73;;;;;;;8.58;59.65;100124.25;4312938;33;20111;-87
2022/12/30 11:05:46;;;;;;;61.03;25.55;;;;;;;8.70;59.66;100123.16;4286729;33;20119;-84
2022/12/30 11:08:26;;;;;;;66.25;27.60;;;;;;;8.92;59.68;100128.81;4295397;33;20119;-86
2022/12/30 11:11:06;;;;;;;66.07;26.70;;;;;;;8.77;59.67;100121.34;4287666;33;20212;-86
2022/12/30 11:16:22;;;;;;;61.65;25.42;;;;;;;8.79;59.66;100123.00;4319772;33;20170;-87
2022/12/30 11:18:47;;;;;;;62.83;26.52;;;;;;;8.92;59.67;100137.44;4314050;33;20167;-87
2022/12/30 11:21:12;;;;;;;66.25;26.92;;;;;;;8.96;59.67;100135.66;4314848;33;20415;-84
2022/12/30 11:23:39;;;;;;;59.08;25.45;;;;;;;9.17;59.69;100134.38;4324350;33;20456;-87
2022/12/30 11:26:19;;;;;;;61.42;24.50;;;;;;;9.23;59.69;100121.28;4294835;33;20115;-88
2022/12/30 11:29:04;;;;;;;63.80;24.95;;;;;;;9.31;59.69;100116.78;4303708;33;20111;-88
2022/12/30 11:31:41;;;;;;;53.87;23.40;;;;;;;9.45;59.70;100121.66;4295144;33;20524;-87
2022/12/30 11:34:13;;;;;;;54.90;23.40;;;;;;;9.54;59.71;100119.75;4305058;33;20108;-85
2022/12/30 11:36:38;;;;;;;63.35;25.40;;;;;;;9.39;59.69;100127.84;4332993;33;20124;-88
2022/12/30 11:39:04;;;;;;;65.05;25.70;;;;;;;9.40;59.70;100131.31;4321249;33;20354;-87
2022/12/30 11:41:29;;;;;;;72.47;27.60;;;;;;;9.41;59.70;100138.22;4334421;33;20114;-87
2022/12/30 11:43:58;;;;;;;64.85;25.12;;;;;;;9.62;59.71;100152.50;4308553;33;20104;-86
2022/12/30 11:46:25;;;;;;;64.47;25.92;;;;;;;9.62;59.71;100150.75;4311964;33;20107;-87
2022/12/30 11:48:51;;;;;;;59.33;24.73;;;;;;;9.53;59.71;100151.81;4308487;33;20127;-83
2022/12/30 11:51:24;;;;;;;58.85;23.80;;;;;;;9.69;59.71;100147.12;4314574;33;20408;-83
2022/12/30 11:54:12;;;;;;;57.95;24.25;;;;;;;9.66;59.71;100154.12;4305225;33;20461;-83
2022/12/30 11:56:49;;;;;;;59.30;25.25;;;;;;;9.51;59.71;100152.75;4304604;33;20134;-85
2022/12/30 11:59:16;;;;;;;57.97;25.45;;;;;;;9.51;59.71;100158.78;4291242;33;20198;-83
2022/12/30 12:01:43;;;;;;;66.53;28.12;;;;;;;9.45;59.71;100158.03;4312345;33;20499;-85
2022/12/30 12:04:08;;;;;;;63.72;26.98;;;;;;;9.12;59.69;100162.19;4306736;33;20422;-84
2022/12/30 12:06:49;;;;;;;76.10;31.05;;;;;;;9.32;59.69;100159.19;4300385;33;20162;-85
2022/12/30 12:09:15;;;;;;;85.15;36.72;;;;;;;9.04;59.68;100166.69;4306674;33;20440;-83
2022/12/30 12:11:42;;;;;;;81.25;33.55;;;;;;;9.00;59.68;100168.47;4298170;33;20391;-85
2022/12/30 12:14:20;;;;;;;82.88;37.08;;;;;;;9.05;59.69;100168.41;4286175;33;20131;-85
2022/12/30 12:16:55;;;;;;;82.20;35.97;;;;;;;9.09;59.68;100168.28;4306617;33;20116;-85
2022/12/30 12:19:30;;;;;;;66.72;30.52;;;;;;;9.07;59.68;100161.44;4333379;33;20124;-84
2022/12/30 12:21:57;;;;;;;63.58;25.58;;;;;;;9.22;59.69;100167.16;4321844;33;20100;-84
2022/12/30 12:24:26;;;;;;;60.12;27.42;;;;;;;9.11;59.68;100174.31;4322860;33;20155;-83
2022/12/30 12:27:04;;;;;;;64.85;27.08;;;;;;;8.97;59.67;100172.84;4302594;33;20116;-84
2022/12/30 12:29:30;;;;;;;56.53;24.77;;;;;;;8.98;59.68;100170.22;4312322;33;20162;-84
2022/12/30 12:32:30;;;;;;;52.65;22.95;;;;;;;8.84;59.67;100172.25;4283909;33;20442;-85